sensor_id;sensor_type;location;lat;lon;timestamp;temperature;humidity
20141;DHT22;10231;47.702;9.826;2023-01-30T00:01:26;-1.30;99.90
20141;DHT22;10231;47.702;9.826;2023-01-30T00:03:52;-1.30;99.90
20141;DHT22;10231;47.702;9.826;2023-01-30T00:06:18;-1.30;99.90
20141;DHT22;10231;47.702;9.826;2023-01-30T00:08:44;-1.40;99.90
20141;DHT22;10231;47.702;9.826;2023-01-30T00:11:11;-1.40;99.90
20141;DHT22;10231;47.702;9.826;2023-01-30T00:13:37;-1.40;99.90
20141;DHT22;10231;47.702;9.826;2023-01-30T00:16:04;-1.40;99.90
20141;DHT22;10231;47.702;9.826;2023-01-30T00:18:29;-1.40;99.90
20141;DHT22;10231;47.702;9.826;2023-01-30T00:20:59;-1.40;99.90
20141;DHT22;10231;47.702;9.826;2023-01-30T00:23:27;-1.40;99.90
20141;DHT22;10231;47.702;9.826;2023-01-30T00:25:53;-1.40;99.90
20141;DHT22;10231;47.702;9.826;2023-01-30T00:28:18;-1.40;99.90
20141;DHT22;10231;47.702;9.826;2023-01-30T00:30:46;-1.40;99.90
20141;DHT22;10231;47.702;9.826;2023-01-30T00:33:12;-1.40;99.90
20141;DHT22;10231;47.702;9.826;2023-01-30T00:35:46;-1.40;99.90
20141;DHT22;10231;47.702;9.826;2023-01-30T00:38:12;-1.40;99.90
20141;DHT22;10231;47.702;9.826;2023-01-30T00:40:37;-1.40;99.90
20141;DHT22;10231;47.702;9.826;2023-01-30T00:43:03;-1.40;99.90
20141;DHT22;10231;47.702;9.826;2023-01-30T00:45:48;-1.40;99.90
20141;DHT22;10231;47.702;9.826;2023-01-30T00:48:33;-0.10;99.90
20141;DHT22;10231;47.702;9.826;2023-01-30T00:50:59;-1.50;99.90
20141;DHT22;10231;47.702;9.826;2023-01-30T00:53:24;-1.50;99.90
20141;DHT22;10231;47.702;9.826;2023-01-30T00:55:51;-1.50;99.90
20141;DHT22;10231;47.702;9.826;2023-01-30T00:58:17;-1.60;99.90
20141;DHT22;10231;47.702;9.826;2023-01-30T01:00:43;-1.60;99.90
20141;DHT22;10231;47.702;9.826;2023-01-30T01:03:09;-1.70;99.90
20141;DHT22;10231;47.702;9.826;2023-01-30T01:05:34;-1.70;99.90
20141;DHT22;10231;47.702;9.826;2023-01-30T01:08:00;-1.70;99.90
20141;DHT22;10231;47.702;9.826;2023-01-30T01:10:26;-1.80;99.90
20141;DHT22;10231;47.702;9.826;2023-01-30T01:12:52;-1.80;99.90
20141;DHT22;10231;47.702;9.826;2023-01-30T01:15:18;-1.80;99.90
20141;DHT22;10231;47.702;9.826;2023-01-30T01:17:44;-1.80;99.90
20141;DHT22;10231;47.702;9.826;2023-01-30T01:20:10;-1.80;99.90
20141;DHT22;10231;47.702;9.826;2023-01-30T01:22:36;-1.80;99.90
20141;DHT22;10231;47.702;9.826;2023-01-30T01:25:02;-1.80;99.90
20141;DHT22;10231;47.702;9.826;2023-01-30T01:27:28;-1.90;99.90
20141;DHT22;10231;47.702;9.826;2023-01-30T01:29:53;-1.70;99.90
20141;DHT22;10231;47.702;9.826;2023-01-30T01:32:20;-1.70;99.90
20141;DHT22;10231;47.702;9.826;2023-01-30T01:34:45;-1.70;99.90
20141;DHT22;10231;47.702;9.826;2023-01-30T01:37:11;-1.80;99.90
20141;DHT22;10231;47.702;9.826;2023-01-30T01:39:37;-1.80;99.90
20141;DHT22;10231;47.702;9.826;2023-01-30T01:42:22;-1.80;99.90
20141;DHT22;10231;47.702;9.826;2023-01-30T01:47:41;-1.70;99.90
20141;DHT22;10231;47.702;9.826;2023-01-30T01:50:15;-1.70;99.90
20141;DHT22;10231;47.702;9.826;2023-01-30T01:52:44;-1.80;99.90
20141;DHT22;10231;47.702;9.826;2023-01-30T01:55:11;-1.80;99.90
20141;DHT22;10231;47.702;9.826;2023-01-30T01:57:48;-1.80;99.90
20141;DHT22;10231;47.702;9.826;2023-01-30T02:00:17;-1.70;99.90
20141;DHT22;10231;47.702;9.826;2023-01-30T02:02:48;-1.70;99.90
20141;DHT22;10231;47.702;9.826;2023-01-30T02:05:16;-1.70;99.90
20141;DHT22;10231;47.702;9.826;2023-01-30T02:08:15;-1.70;99.90
20141;DHT22;10231;47.702;9.826;2023-01-30T02:11:08;-1.80;99.90
20141;DHT22;10231;47.702;9.826;2023-01-30T02:13:35;-1.80;99.90
20141;DHT22;10231;47.702;9.826;2023-01-30T02:16:02;-1.80;99.90
20141;DHT22;10231;47.702;9.826;2023-01-30T02:18:30;-1.80;99.90
20141;DHT22;10231;47.702;9.826;2023-01-30T02:21:38;-1.80;99.90
20141;DHT22;10231;47.702;9.826;2023-01-30T02:24:46;-1.80;99.90
20141;DHT22;10231;47.702;9.826;2023-01-30T02:33:09;-2.00;99.90
20141;DHT22;10231;47.702;9.826;2023-01-30T02:35:59;-2.00;99.90
20141;DHT22;10231;47.702;9.826;2023-01-30T02:44:25;-2.10;99.90
20141;DHT22;10231;47.702;9.826;2023-01-30T02:46:58;-2.10;99.90
20141;DHT22;10231;47.702;9.826;2023-01-30T02:49:41;-2.00;99.90
20141;DHT22;10231;47.702;9.826;2023-01-30T02:52:10;-2.00;99.90
20141;DHT22;10231;47.702;9.826;2023-01-30T02:54:36;-2.00;99.90
20141;DHT22;10231;47.702;9.826;2023-01-30T02:57:02;-2.00;99.90
20141;DHT22;10231;47.702;9.826;2023-01-30T02:59:37;-2.10;99.90
20141;DHT22;10231;47.702;9.826;2023-01-30T03:07:43;-2.10;99.90
20141;DHT22;10231;47.702;9.826;2023-01-30T03:15:49;-2.10;99.90
20141;DHT22;10231;47.702;9.826;2023-01-30T03:18:16;-2.10;99.90
20141;DHT22;10231;47.702;9.826;2023-01-30T03:20:43;-2.10;99.90
20141;DHT22;10231;47.702;9.826;2023-01-30T03:23:09;-2.10;99.90
20141;DHT22;10231;47.702;9.826;2023-01-30T03:25:37;-2.10;99.90
20141;DHT22;10231;47.702;9.826;2023-01-30T03:28:04;-2.10;99.90
20141;DHT22;10231;47.702;9.826;2023-01-30T03:30:31;-2.00;99.90
20141;DHT22;10231;47.702;9.826;2023-01-30T03:32:57;-2.10;99.90
20141;DHT22;10231;47.702;9.826;2023-01-30T03:35:22;-2.10;99.90
20141;DHT22;10231;47.702;9.826;2023-01-30T03:37:48;-2.10;99.90
20141;DHT22;10231;47.702;9.826;2023-01-30T03:40:15;-2.20;99.90
20141;DHT22;10231;47.702;9.826;2023-01-30T03:42:41;-2.20;99.90
20141;DHT22;10231;47.702;9.826;2023-01-30T03:45:11;-2.10;99.90
20141;DHT22;10231;47.702;9.826;2023-01-30T03:47:36;-2.10;99.90
20141;DHT22;10231;47.702;9.826;2023-01-30T03:50:02;-2.10;99.90
20141;DHT22;10231;47.702;9.826;2023-01-30T03:52:28;-2.10;99.90
20141;DHT22;10231;47.702;9.826;2023-01-30T03:54:53;-2.10;99.90
20141;DHT22;10231;47.702;9.826;2023-01-30T03:57:19;-2.10;99.90
20141;DHT22;10231;47.702;9.826;2023-01-30T03:59:44;-2.20;99.90
20141;DHT22;10231;47.702;9.826;2023-01-30T04:02:10;-2.20;99.90
20141;DHT22;10231;47.702;9.826;2023-01-30T04:04:35;-2.10;99.90
20141;DHT22;10231;47.702;9.826;2023-01-30T04:07:01;-2.00;99.90
20141;DHT22;10231;47.702;9.826;2023-01-30T04:09:26;-2.00;99.90
20141;DHT22;10231;47.702;9.826;2023-01-30T04:11:52;-2.10;99.90
20141;DHT22;10231;47.702;9.826;2023-01-30T04:14:18;-2.10;99.90
20141;DHT22;10231;47.702;9.826;2023-01-30T04:16:44;-2.10;99.90
20141;DHT22;10231;47.702;9.826;2023-01-30T04:19:10;-2.00;99.90
20141;DHT22;10231;47.702;9.826;2023-01-30T04:21:35;-2.00;99.90
20141;DHT22;10231;47.702;9.826;2023-01-30T04:24:01;-2.00;99.90
20141;DHT22;10231;47.702;9.826;2023-01-30T04:26:27;-2.10;99.90
20141;DHT22;10231;47.702;9.826;2023-01-30T04:28:53;-2.00;99.90
20141;DHT22;10231;47.702;9.826;2023-01-30T04:31:18;-2.00;99.90
20141;DHT22;10231;47.702;9.826;2023-01-30T04:33:44;-1.90;99.90
20141;DHT22;10231;47.702;9.826;2023-01-30T04:36:10;-1.80;99.90
20141;DHT22;10231;47.702;9.826;2023-01-30T04:38:38;-1.70;99.90
20141;DHT22;10231;47.702;9.826;2023-01-30T04:41:04;-1.70;99.90
20141;DHT22;10231;47.702;9.826;2023-01-30T04:43:30;-1.60;99.90
20141;DHT22;10231;47.702;9.826;2023-01-30T04:45:56;-1.50;99.90
20141;DHT22;10231;47.702;9.826;2023-01-30T04:48:24;-1.50;99.90
20141;DHT22;10231;47.702;9.826;2023-01-30T04:50:51;-1.30;99.90
20141;DHT22;10231;47.702;9.826;2023-01-30T04:53:18;-1.40;99.90
20141;DHT22;10231;47.702;9.826;2023-01-30T04:55:44;-1.50;99.90
20141;DHT22;10231;47.702;9.826;2023-01-30T04:58:10;-1.50;99.90
20141;DHT22;10231;47.702;9.826;2023-01-30T05:00:38;-1.60;99.90
20141;DHT22;10231;47.702;9.826;2023-01-30T05:03:04;-1.70;99.90
20141;DHT22;10231;47.702;9.826;2023-01-30T05:05:31;-1.70;99.90
20141;DHT22;10231;47.702;9.826;2023-01-30T05:07:56;-1.70;99.90
20141;DHT22;10231;47.702;9.826;2023-01-30T05:10:22;-1.70;99.90
20141;DHT22;10231;47.702;9.826;2023-01-30T05:12:48;-1.70;99.90
20141;DHT22;10231;47.702;9.826;2023-01-30T05:15:13;-1.70;99.90
20141;DHT22;10231;47.702;9.826;2023-01-30T05:17:39;-1.60;99.90
20141;DHT22;10231;47.702;9.826;2023-01-30T05:20:06;-1.50;99.90
20141;DHT22;10231;47.702;9.826;2023-01-30T05:22:32;-1.60;99.90
20141;DHT22;10231;47.702;9.826;2023-01-30T05:24:57;-1.50;99.90
20141;DHT22;10231;47.702;9.826;2023-01-30T05:27:23;-1.40;99.90
20141;DHT22;10231;47.702;9.826;2023-01-30T05:29:48;-1.40;99.90
20141;DHT22;10231;47.702;9.826;2023-01-30T05:32:15;-1.40;99.90
20141;DHT22;10231;47.702;9.826;2023-01-30T05:34:41;-1.40;99.90
20141;DHT22;10231;47.702;9.826;2023-01-30T05:37:06;-1.40;99.90
20141;DHT22;10231;47.702;9.826;2023-01-30T05:39:32;-1.40;99.90
20141;DHT22;10231;47.702;9.826;2023-01-30T05:41:58;-1.30;99.90
20141;DHT22;10231;47.702;9.826;2023-01-30T05:44:23;-1.40;99.90
20141;DHT22;10231;47.702;9.826;2023-01-30T05:46:49;-1.40;99.90
20141;DHT22;10231;47.702;9.826;2023-01-30T05:49:15;-1.40;99.90
20141;DHT22;10231;47.702;9.826;2023-01-30T05:51:40;-1.40;99.90
20141;DHT22;10231;47.702;9.826;2023-01-30T05:54:06;-1.30;99.90
20141;DHT22;10231;47.702;9.826;2023-01-30T05:56:31;-1.30;99.90
20141;DHT22;10231;47.702;9.826;2023-01-30T05:58:58;-1.40;99.90
20141;DHT22;10231;47.702;9.826;2023-01-30T06:01:24;-1.50;99.90
20141;DHT22;10231;47.702;9.826;2023-01-30T06:03:50;-1.60;99.90
20141;DHT22;10231;47.702;9.826;2023-01-30T06:06:16;-1.50;99.90
20141;DHT22;10231;47.702;9.826;2023-01-30T06:08:42;-1.50;99.90
20141;DHT22;10231;47.702;9.826;2023-01-30T06:11:11;-1.50;99.90
20141;DHT22;10231;47.702;9.826;2023-01-30T06:13:37;-1.50;99.90
20141;DHT22;10231;47.702;9.826;2023-01-30T06:16:04;-1.60;99.90
20141;DHT22;10231;47.702;9.826;2023-01-30T06:18:30;-1.60;99.90
20141;DHT22;10231;47.702;9.826;2023-01-30T06:20:55;-1.60;99.90
20141;DHT22;10231;47.702;9.826;2023-01-30T06:23:21;-1.60;99.90
20141;DHT22;10231;47.702;9.826;2023-01-30T06:25:51;-1.70;99.90
20141;DHT22;10231;47.702;9.826;2023-01-30T06:28:18;-1.60;99.90
20141;DHT22;10231;47.702;9.826;2023-01-30T06:30:44;-1.60;99.90
20141;DHT22;10231;47.702;9.826;2023-01-30T06:33:10;-1.60;99.90
20141;DHT22;10231;47.702;9.826;2023-01-30T06:35:37;-1.50;99.90
20141;DHT22;10231;47.702;9.826;2023-01-30T06:38:03;-1.70;99.90
20141;DHT22;10231;47.702;9.826;2023-01-30T06:40:29;-1.60;99.90
20141;DHT22;10231;47.702;9.826;2023-01-30T06:42:54;-1.60;99.90
20141;DHT22;10231;47.702;9.826;2023-01-30T06:45:20;-1.60;99.90
20141;DHT22;10231;47.702;9.826;2023-01-30T06:47:50;-1.70;99.90
20141;DHT22;10231;47.702;9.826;2023-01-30T06:50:18;-1.70;99.90
20141;DHT22;10231;47.702;9.826;2023-01-30T06:52:46;-1.70;99.90
20141;DHT22;10231;47.702;9.826;2023-01-30T06:55:14;-1.70;99.90
20141;DHT22;10231;47.702;9.826;2023-01-30T06:57:41;-1.60;99.90
20141;DHT22;10231;47.702;9.826;2023-01-30T07:00:10;-1.60;99.90
20141;DHT22;10231;47.702;9.826;2023-01-30T07:02:36;-1.60;99.90
20141;DHT22;10231;47.702;9.826;2023-01-30T07:05:03;-1.70;99.90
20141;DHT22;10231;47.702;9.826;2023-01-30T07:07:29;-1.70;99.90
20141;DHT22;10231;47.702;9.826;2023-01-30T07:09:56;-1.60;99.90
20141;DHT22;10231;47.702;9.826;2023-01-30T07:12:22;-1.60;99.90
20141;DHT22;10231;47.702;9.826;2023-01-30T07:14:47;-1.60;99.90
20141;DHT22;10231;47.702;9.826;2023-01-30T07:17:13;-1.60;99.90
20141;DHT22;10231;47.702;9.826;2023-01-30T07:19:39;-1.60;99.90
20141;DHT22;10231;47.702;9.826;2023-01-30T07:22:04;-1.60;99.90
20141;DHT22;10231;47.702;9.826;2023-01-30T07:24:30;-1.60;99.90
20141;DHT22;10231;47.702;9.826;2023-01-30T07:26:55;-1.60;99.90
20141;DHT22;10231;47.702;9.826;2023-01-30T07:29:21;-1.60;99.90
20141;DHT22;10231;47.702;9.826;2023-01-30T07:31:46;-1.60;99.90
20141;DHT22;10231;47.702;9.826;2023-01-30T07:34:12;-1.50;99.90
20141;DHT22;10231;47.702;9.826;2023-01-30T07:36:37;-1.60;99.90
20141;DHT22;10231;47.702;9.826;2023-01-30T07:39:04;-1.50;99.90
20141;DHT22;10231;47.702;9.826;2023-01-30T07:41:30;-1.50;99.90
20141;DHT22;10231;47.702;9.826;2023-01-30T07:43:55;-1.60;99.90
20141;DHT22;10231;47.702;9.826;2023-01-30T07:46:21;-1.60;99.90
20141;DHT22;10231;47.702;9.826;2023-01-30T07:48:46;-1.60;99.90
20141;DHT22;10231;47.702;9.826;2023-01-30T07:51:12;-1.50;99.90
20141;DHT22;10231;47.702;9.826;2023-01-30T07:53:38;-1.60;99.90
20141;DHT22;10231;47.702;9.826;2023-01-30T07:56:08;-1.60;99.90
20141;DHT22;10231;47.702;9.826;2023-01-30T07:58:34;-1.50;99.90
20141;DHT22;10231;47.702;9.826;2023-01-30T08:01:00;-1.50;99.90
20141;DHT22;10231;47.702;9.826;2023-01-30T08:03:25;-1.50;99.90
20141;DHT22;10231;47.702;9.826;2023-01-30T08:05:51;-1.40;99.90
20141;DHT22;10231;47.702;9.826;2023-01-30T08:08:18;-1.40;99.90
20141;DHT22;10231;47.702;9.826;2023-01-30T08:10:44;-1.30;99.90
20141;DHT22;10231;47.702;9.826;2023-01-30T08:13:12;-1.20;99.90
20141;DHT22;10231;47.702;9.826;2023-01-30T08:15:38;-1.10;99.90
20141;DHT22;10231;47.702;9.826;2023-01-30T08:18:03;-1.10;99.90
20141;DHT22;10231;47.702;9.826;2023-01-30T08:20:29;-1.10;99.90
20141;DHT22;10231;47.702;9.826;2023-01-30T08:22:54;-0.90;99.90
20141;DHT22;10231;47.702;9.826;2023-01-30T08:25:20;-0.90;99.90
20141;DHT22;10231;47.702;9.826;2023-01-30T08:27:46;-0.90;99.90
20141;DHT22;10231;47.702;9.826;2023-01-30T08:30:12;-0.90;99.90
20141;DHT22;10231;47.702;9.826;2023-01-30T08:32:37;-0.80;99.90
20141;DHT22;10231;47.702;9.826;2023-01-30T08:35:03;-0.70;99.90
20141;DHT22;10231;47.702;9.826;2023-01-30T08:37:29;-0.70;99.90
20141;DHT22;10231;47.702;9.826;2023-01-30T08:39:54;-0.60;99.90
20141;DHT22;10231;47.702;9.826;2023-01-30T08:42:20;-0.60;99.90
20141;DHT22;10231;47.702;9.826;2023-01-30T08:44:45;-0.60;99.90
20141;DHT22;10231;47.702;9.826;2023-01-30T08:47:11;-0.60;99.90
20141;DHT22;10231;47.702;9.826;2023-01-30T08:49:36;-0.60;99.90
20141;DHT22;10231;47.702;9.826;2023-01-30T08:52:02;-0.60;99.90
20141;DHT22;10231;47.702;9.826;2023-01-30T08:54:27;-0.50;99.90
20141;DHT22;10231;47.702;9.826;2023-01-30T08:56:53;-0.50;99.90
20141;DHT22;10231;47.702;9.826;2023-01-30T08:59:18;-0.50;99.90
20141;DHT22;10231;47.702;9.826;2023-01-30T09:01:44;-0.50;99.90
20141;DHT22;10231;47.702;9.826;2023-01-30T09:04:09;-0.50;99.90
20141;DHT22;10231;47.702;9.826;2023-01-30T09:06:35;-0.40;99.90
20141;DHT22;10231;47.702;9.826;2023-01-30T09:09:01;-0.40;99.90
20141;DHT22;10231;47.702;9.826;2023-01-30T09:11:26;-0.30;99.90
20141;DHT22;10231;47.702;9.826;2023-01-30T09:13:52;-0.40;99.90
20141;DHT22;10231;47.702;9.826;2023-01-30T09:16:17;-0.30;99.90
20141;DHT22;10231;47.702;9.826;2023-01-30T09:18:43;-0.30;99.90
20141;DHT22;10231;47.702;9.826;2023-01-30T09:21:10;-0.30;99.90
20141;DHT22;10231;47.702;9.826;2023-01-30T09:23:37;-0.30;99.90
20141;DHT22;10231;47.702;9.826;2023-01-30T09:26:03;-0.30;99.90
20141;DHT22;10231;47.702;9.826;2023-01-30T09:28:29;-0.30;99.90
20141;DHT22;10231;47.702;9.826;2023-01-30T09:30:56;-0.30;99.90
20141;DHT22;10231;47.702;9.826;2023-01-30T09:33:22;-0.40;99.90
20141;DHT22;10231;47.702;9.826;2023-01-30T09:35:48;-0.30;99.90
20141;DHT22;10231;47.702;9.826;2023-01-30T09:38:15;-0.30;99.90
20141;DHT22;10231;47.702;9.826;2023-01-30T09:46:10;-0.20;99.90
20141;DHT22;10231;47.702;9.826;2023-01-30T09:48:53;-0.20;99.90
20141;DHT22;10231;47.702;9.826;2023-01-30T09:51:57;-0.20;99.90
20141;DHT22;10231;47.702;9.826;2023-01-30T09:54:32;-0.10;99.90
20141;DHT22;10231;47.702;9.826;2023-01-30T09:57:09;0.00;99.90
20141;DHT22;10231;47.702;9.826;2023-01-30T10:05:16;0.30;99.90
20141;DHT22;10231;47.702;9.826;2023-01-30T10:08:04;0.20;99.90
20141;DHT22;10231;47.702;9.826;2023-01-30T10:10:47;0.20;99.90
20141;DHT22;10231;47.702;9.826;2023-01-30T10:16:11;0.30;99.90
20141;DHT22;10231;47.702;9.826;2023-01-30T10:24:32;0.40;99.90
20141;DHT22;10231;47.702;9.826;2023-01-30T10:27:01;0.40;99.90
20141;DHT22;10231;47.702;9.826;2023-01-30T10:29:32;0.40;99.90
20141;DHT22;10231;47.702;9.826;2023-01-30T10:32:06;0.40;99.90
20141;DHT22;10231;47.702;9.826;2023-01-30T10:34:40;0.50;99.90
20141;DHT22;10231;47.702;9.826;2023-01-30T10:37:18;0.60;99.90
20141;DHT22;10231;47.702;9.826;2023-01-30T10:39:58;0.60;99.90
20141;DHT22;10231;47.702;9.826;2023-01-30T10:42:54;0.60;99.90
20141;DHT22;10231;47.702;9.826;2023-01-30T10:45:31;0.60;99.90
20141;DHT22;10231;47.702;9.826;2023-01-30T10:48:11;0.60;99.90
20141;DHT22;10231;47.702;9.826;2023-01-30T10:50:44;0.50;99.90
20141;DHT22;10231;47.702;9.826;2023-01-30T10:56:20;0.60;99.90
20141;DHT22;10231;47.702;9.826;2023-01-30T10:58:59;0.60;99.90
20141;DHT22;10231;47.702;9.826;2023-01-30T11:01:43;0.60;99.90
20141;DHT22;10231;47.702;9.826;2023-01-30T11:04:27;0.70;99.90
20141;DHT22;10231;47.702;9.826;2023-01-30T11:06:56;0.80;99.90
20141;DHT22;10231;47.702;9.826;2023-01-30T11:09:22;0.90;99.90
20141;DHT22;10231;47.702;9.826;2023-01-30T11:11:53;0.90;99.90
20141;DHT22;10231;47.702;9.826;2023-01-30T11:14:19;0.90;99.90
20141;DHT22;10231;47.702;9.826;2023-01-30T11:16:49;1.00;99.90
20141;DHT22;10231;47.702;9.826;2023-01-30T11:19:20;1.00;99.90
20141;DHT22;10231;47.702;9.826;2023-01-30T11:21:51;1.20;99.90
20141;DHT22;10231;47.702;9.826;2023-01-30T11:24:30;1.30;99.90
20141;DHT22;10231;47.702;9.826;2023-01-30T11:27:14;1.30;99.90
20141;DHT22;10231;47.702;9.826;2023-01-30T11:29:40;1.30;99.90
20141;DHT22;10231;47.702;9.826;2023-01-30T11:32:23;1.40;99.90
20141;DHT22;10231;47.702;9.826;2023-01-30T11:35:16;1.50;99.90
20141;DHT22;10231;47.702;9.826;2023-01-30T11:37:44;1.40;99.90
20141;DHT22;10231;47.702;9.826;2023-01-30T11:40:22;1.40;99.90
20141;DHT22;10231;47.702;9.826;2023-01-30T11:43:11;1.50;99.90
20141;DHT22;10231;47.702;9.826;2023-01-30T11:45:46;1.50;99.90
20141;DHT22;10231;47.702;9.826;2023-01-30T11:48:19;1.60;99.90
20141;DHT22;10231;47.702;9.826;2023-01-30T11:50:48;1.70;99.90
20141;DHT22;10231;47.702;9.826;2023-01-30T11:53:26;1.80;99.90
20141;DHT22;10231;47.702;9.826;2023-01-30T11:55:56;1.90;99.90
20141;DHT22;10231;47.702;9.826;2023-01-30T11:58:22;1.90;99.90
20141;DHT22;10231;47.702;9.826;2023-01-30T12:00:49;1.90;99.90
20141;DHT22;10231;47.702;9.826;2023-01-30T12:03:17;2.00;99.90
20141;DHT22;10231;47.702;9.826;2023-01-30T12:05:45;2.00;99.90
20141;DHT22;10231;47.702;9.826;2023-01-30T12:08:21;2.10;99.90
20141;DHT22;10231;47.702;9.826;2023-01-30T12:10:53;2.20;99.90
20141;DHT22;10231;47.702;9.826;2023-01-30T12:13:26;2.30;99.90
20141;DHT22;10231;47.702;9.826;2023-01-30T12:18:55;2.30;99.90
20141;DHT22;10231;47.702;9.826;2023-01-30T12:21:38;2.40;99.90
20141;DHT22;10231;47.702;9.826;2023-01-30T12:24:33;2.50;99.90
20141;DHT22;10231;47.702;9.826;2023-01-30T12:27:05;2.60;99.90
20141;DHT22;10231;47.702;9.826;2023-01-30T12:29:42;2.60;99.90
20141;DHT22;10231;47.702;9.826;2023-01-30T12:32:18;2.50;99.90
20141;DHT22;10231;47.702;9.826;2023-01-30T12:34:45;2.40;99.90
20141;DHT22;10231;47.702;9.826;2023-01-30T12:37:53;2.40;99.90
20141;DHT22;10231;47.702;9.826;2023-01-30T12:45:46;2.40;99.90
20141;DHT22;10231;47.702;9.826;2023-01-30T12:51:33;2.40;99.90
20141;DHT22;10231;47.702;9.826;2023-01-30T12:56:53;2.40;99.90
20141;DHT22;10231;47.702;9.826;2023-01-30T12:59:41;2.40;99.90
20141;DHT22;10231;47.702;9.826;2023-01-30T13:02:24;2.40;99.90
20141;DHT22;10231;47.702;9.826;2023-01-30T13:05:17;2.40;99.90
20141;DHT22;10231;47.702;9.826;2023-01-30T13:13:20;2.40;99.90
20141;DHT22;10231;47.702;9.826;2023-01-30T13:16:05;2.30;99.90
20141;DHT22;10231;47.702;9.826;2023-01-30T13:18:55;2.20;99.90
20141;DHT22;10231;47.702;9.826;2023-01-30T13:21:33;2.30;99.90
20141;DHT22;10231;47.702;9.826;2023-01-30T13:24:07;2.30;99.90
20141;DHT22;10231;47.702;9.826;2023-01-30T13:26:38;2.40;99.90
20141;DHT22;10231;47.702;9.826;2023-01-30T13:29:13;2.30;99.90
20141;DHT22;10231;47.702;9.826;2023-01-30T13:31:48;2.40;99.90
20141;DHT22;10231;47.702;9.826;2023-01-30T13:34:30;2.40;99.90
20141;DHT22;10231;47.702;9.826;2023-01-30T13:37:06;2.40;99.90
20141;DHT22;10231;47.702;9.826;2023-01-30T13:39:47;2.50;99.90
20141;DHT22;10231;47.702;9.826;2023-01-30T13:42:20;2.50;99.90
20141;DHT22;10231;47.702;9.826;2023-01-30T13:44:50;2.40;99.90
20141;DHT22;10231;47.702;9.826;2023-01-30T13:56:28;2.30;99.90
20141;DHT22;10231;47.702;9.826;2023-01-30T13:58:48;2.30;99.90
20141;DHT22;10231;47.702;9.826;2023-01-30T14:01:17;2.30;99.90
20141;DHT22;10231;47.702;9.826;2023-01-30T14:03:42;2.30;99.90
20141;DHT22;10231;47.702;9.826;2023-01-30T14:06:33;2.20;99.90
20141;DHT22;10231;47.702;9.826;2023-01-30T14:09:04;2.30;99.90
20141;DHT22;10231;47.702;9.826;2023-01-30T14:11:43;2.30;99.90
20141;DHT22;10231;47.702;9.826;2023-01-30T14:14:32;2.30;99.90
20141;DHT22;10231;47.702;9.826;2023-01-30T14:17:10;2.40;99.90
20141;DHT22;10231;47.702;9.826;2023-01-30T14:33:10;2.40;99.90
20141;DHT22;10231;47.702;9.826;2023-01-30T14:38:40;2.40;99.90
20141;DHT22;10231;47.702;9.826;2023-01-30T14:41:26;2.50;99.90
20141;DHT22;10231;47.702;9.826;2023-01-30T14:43:52;2.50;99.90
20141;DHT22;10231;47.702;9.826;2023-01-30T14:51:21;2.60;99.90
20141;DHT22;10231;47.702;9.826;2023-01-30T15:07:35;2.60;99.90
20141;DHT22;10231;47.702;9.826;2023-01-30T15:10:08;2.60;99.90
20141;DHT22;10231;47.702;9.826;2023-01-30T15:13:27;2.70;99.90
20141;DHT22;10231;47.702;9.826;2023-01-30T15:15:46;2.60;99.90
20141;DHT22;10231;47.702;9.826;2023-01-30T15:31:31;2.50;99.90
20141;DHT22;10231;47.702;9.826;2023-01-30T15:33:58;2.50;99.90
20141;DHT22;10231;47.702;9.826;2023-01-30T15:36:34;2.50;99.90
20141;DHT22;10231;47.702;9.826;2023-01-30T15:39:02;2.50;99.90
20141;DHT22;10231;47.702;9.826;2023-01-30T15:41:30;2.50;99.90
20141;DHT22;10231;47.702;9.826;2023-01-30T15:44:08;2.50;99.90
20141;DHT22;10231;47.702;9.826;2023-01-30T15:51:50;2.40;99.90
20141;DHT22;10231;47.702;9.826;2023-01-30T15:54:18;2.30;99.90
20141;DHT22;10231;47.702;9.826;2023-01-30T15:56:47;2.20;99.90
20141;DHT22;10231;47.702;9.826;2023-01-30T15:59:42;2.20;99.90
20141;DHT22;10231;47.702;9.826;2023-01-30T16:04:36;2.20;99.90
20141;DHT22;10231;47.702;9.826;2023-01-30T16:07:33;2.30;99.90
20141;DHT22;10231;47.702;9.826;2023-01-30T16:09:59;2.20;99.90
20141;DHT22;10231;47.702;9.826;2023-01-30T16:12:29;2.20;99.90
20141;DHT22;10231;47.702;9.826;2023-01-30T16:14:55;2.20;99.90
20141;DHT22;10231;47.702;9.826;2023-01-30T16:17:26;2.10;99.90
20141;DHT22;10231;47.702;9.826;2023-01-30T16:19:54;2.10;99.90
20141;DHT22;10231;47.702;9.826;2023-01-30T16:22:22;2.10;99.90
20141;DHT22;10231;47.702;9.826;2023-01-30T16:24:51;2.10;99.90
20141;DHT22;10231;47.702;9.826;2023-01-30T16:27:31;2.10;99.90
20141;DHT22;10231;47.702;9.826;2023-01-30T16:29:59;2.10;99.90
20141;DHT22;10231;47.702;9.826;2023-01-30T16:32:29;2.10;99.90
20141;DHT22;10231;47.702;9.826;2023-01-30T16:37:56;2.00;99.90
20141;DHT22;10231;47.702;9.826;2023-01-30T16:40:25;2.00;99.90
20141;DHT22;10231;47.702;9.826;2023-01-30T16:42:59;2.00;99.90
20141;DHT22;10231;47.702;9.826;2023-01-30T16:48:29;2.00;99.90
20141;DHT22;10231;47.702;9.826;2023-01-30T16:53:22;2.00;99.90
20141;DHT22;10231;47.702;9.826;2023-01-30T16:56:09;2.00;99.90
20141;DHT22;10231;47.702;9.826;2023-01-30T16:58:39;2.10;99.90
20141;DHT22;10231;47.702;9.826;2023-01-30T17:01:06;2.00;99.90
20141;DHT22;10231;47.702;9.826;2023-01-30T17:03:40;2.00;99.90
20141;DHT22;10231;47.702;9.826;2023-01-30T17:06:09;2.00;99.90
20141;DHT22;10231;47.702;9.826;2023-01-30T17:08:48;2.00;99.90
20141;DHT22;10231;47.702;9.826;2023-01-30T17:11:34;2.00;99.90
20141;DHT22;10231;47.702;9.826;2023-01-30T17:14:22;2.00;99.90
20141;DHT22;10231;47.702;9.826;2023-01-30T17:17:06;1.90;99.90
20141;DHT22;10231;47.702;9.826;2023-01-30T17:19:33;1.90;99.90
20141;DHT22;10231;47.702;9.826;2023-01-30T17:22:02;1.90;99.90
20141;DHT22;10231;47.702;9.826;2023-01-30T17:24:28;1.90;99.90
20141;DHT22;10231;47.702;9.826;2023-01-30T17:26:57;1.90;99.90
20141;DHT22;10231;47.702;9.826;2023-01-30T17:29:27;1.80;99.90
20141;DHT22;10231;47.702;9.826;2023-01-30T17:31:54;1.80;99.90
20141;DHT22;10231;47.702;9.826;2023-01-30T17:34:20;1.80;99.90
20141;DHT22;10231;47.702;9.826;2023-01-30T17:36:50;1.80;99.90
20141;DHT22;10231;47.702;9.826;2023-01-30T17:39:18;1.80;99.90
20141;DHT22;10231;47.702;9.826;2023-01-30T17:41:44;1.80;99.90
20141;DHT22;10231;47.702;9.826;2023-01-30T17:44:10;1.80;99.90
20141;DHT22;10231;47.702;9.826;2023-01-30T17:49:02;1.80;99.90
20141;DHT22;10231;47.702;9.826;2023-01-30T17:51:27;1.80;99.90
20141;DHT22;10231;47.702;9.826;2023-01-30T17:53:53;1.80;99.90
20141;DHT22;10231;47.702;9.826;2023-01-30T17:56:26;1.80;99.90
20141;DHT22;10231;47.702;9.826;2023-01-30T17:58:53;1.80;99.90
20141;DHT22;10231;47.702;9.826;2023-01-30T18:01:18;1.80;99.90
20141;DHT22;10231;47.702;9.826;2023-01-30T18:03:44;1.90;99.90
20141;DHT22;10231;47.702;9.826;2023-01-30T18:06:12;1.90;99.90
20141;DHT22;10231;47.702;9.826;2023-01-30T18:08:38;1.80;99.90
20141;DHT22;10231;47.702;9.826;2023-01-30T18:11:04;1.80;99.90
20141;DHT22;10231;47.702;9.826;2023-01-30T18:13:30;1.90;99.90
20141;DHT22;10231;47.702;9.826;2023-01-30T18:15:57;1.80;99.90
20141;DHT22;10231;47.702;9.826;2023-01-30T18:18:24;1.80;99.90
20141;DHT22;10231;47.702;9.826;2023-01-30T18:20:50;1.80;99.90